sensor_id;sensor_type;location;lat;lon;timestamp;temperature;humidity
2893;DHT22;1456;51.840;12.184;2023-02-28T00:01:21;2.20;95.40
2893;DHT22;1456;51.840;12.184;2023-02-28T00:03:47;2.20;95.30
2893;DHT22;1456;51.840;12.184;2023-02-28T00:06:12;2.20;95.60
2893;DHT22;1456;51.840;12.184;2023-02-28T00:08:39;2.30;95.50
2893;DHT22;1456;51.840;12.184;2023-02-28T00:11:09;2.20;95.30
2893;DHT22;1456;51.840;12.184;2023-02-28T00:13:37;2.20;95.10
2893;DHT22;1456;51.840;12.184;2023-02-28T00:16:09;2.20;95.00
2893;DHT22;1456;51.840;12.184;2023-02-28T00:18:35;2.30;95.00
2893;DHT22;1456;51.840;12.184;2023-02-28T00:21:01;2.20;95.00
2893;DHT22;1456;51.840;12.184;2023-02-28T00:23:27;2.20;95.20
2893;DHT22;1456;51.840;12.184;2023-02-28T00:25:53;2.20;95.20
2893;DHT22;1456;51.840;12.184;2023-02-28T00:28:19;2.20;95.30
2893;DHT22;1456;51.840;12.184;2023-02-28T00:30:45;2.20;95.30
2893;DHT22;1456;51.840;12.184;2023-02-28T00:33:14;2.10;94.90
2893;DHT22;1456;51.840;12.184;2023-02-28T00:35:40;2.00;95.00
2893;DHT22;1456;51.840;12.184;2023-02-28T00:38:06;2.00;94.90
2893;DHT22;1456;51.840;12.184;2023-02-28T00:40:32;2.00;95.20
2893;DHT22;1456;51.840;12.184;2023-02-28T00:42:58;2.10;95.30
2893;DHT22;1456;51.840;12.184;2023-02-28T00:45:24;2.00;94.80
2893;DHT22;1456;51.840;12.184;2023-02-28T00:47:51;2.20;95.00
2893;DHT22;1456;51.840;12.184;2023-02-28T00:50:21;2.10;95.20
2893;DHT22;1456;51.840;12.184;2023-02-28T00:52:47;2.20;95.10
2893;DHT22;1456;51.840;12.184;2023-02-28T00:55:16;2.20;95.00
2893;DHT22;1456;51.840;12.184;2023-02-28T00:57:42;2.20;94.80
2893;DHT22;1456;51.840;12.184;2023-02-28T01:00:08;2.20;94.60
2893;DHT22;1456;51.840;12.184;2023-02-28T01:02:34;2.20;94.70
2893;DHT22;1456;51.840;12.184;2023-02-28T01:05:00;2.20;94.70
2893;DHT22;1456;51.840;12.184;2023-02-28T01:07:25;2.20;94.70
2893;DHT22;1456;51.840;12.184;2023-02-28T01:09:51;2.20;94.80
2893;DHT22;1456;51.840;12.184;2023-02-28T01:12:18;2.20;94.90
2893;DHT22;1456;51.840;12.184;2023-02-28T01:14:43;2.20;95.30
2893;DHT22;1456;51.840;12.184;2023-02-28T01:17:09;2.20;95.40
2893;DHT22;1456;51.840;12.184;2023-02-28T01:19:35;2.30;95.50
2893;DHT22;1456;51.840;12.184;2023-02-28T01:22:05;2.30;95.50
2893;DHT22;1456;51.840;12.184;2023-02-28T01:24:32;2.20;95.20
2893;DHT22;1456;51.840;12.184;2023-02-28T01:26:58;2.10;95.00
2893;DHT22;1456;51.840;12.184;2023-02-28T01:29:24;2.10;95.00
2893;DHT22;1456;51.840;12.184;2023-02-28T01:31:50;2.10;95.10
2893;DHT22;1456;51.840;12.184;2023-02-28T01:34:18;2.20;95.50
2893;DHT22;1456;51.840;12.184;2023-02-28T01:36:45;2.20;95.80
2893;DHT22;1456;51.840;12.184;2023-02-28T01:39:11;2.20;95.60
2893;DHT22;1456;51.840;12.184;2023-02-28T01:41:38;2.20;95.70
2893;DHT22;1456;51.840;12.184;2023-02-28T01:46:50;2.10;96.20
2893;DHT22;1456;51.840;12.184;2023-02-28T01:49:16;2.10;96.40
2893;DHT22;1456;51.840;12.184;2023-02-28T01:51:50;2.10;96.30
2893;DHT22;1456;51.840;12.184;2023-02-28T01:54:30;2.10;96.30
2893;DHT22;1456;51.840;12.184;2023-02-28T01:57:10;2.10;96.30
2893;DHT22;1456;51.840;12.184;2023-02-28T01:59:42;2.10;96.10
2893;DHT22;1456;51.840;12.184;2023-02-28T02:02:12;2.00;96.10
2893;DHT22;1456;51.840;12.184;2023-02-28T02:05:06;2.00;96.10
2893;DHT22;1456;51.840;12.184;2023-02-28T02:07:37;2.00;96.50
2893;DHT22;1456;51.840;12.184;2023-02-28T02:10:29;2.00;96.80
2893;DHT22;1456;51.840;12.184;2023-02-28T02:15:57;2.00;96.70
2893;DHT22;1456;51.840;12.184;2023-02-28T02:27:06;2.00;97.10
2893;DHT22;1456;51.840;12.184;2023-02-28T02:29:47;1.90;97.20
2893;DHT22;1456;51.840;12.184;2023-02-28T02:35:07;1.90;97.10
2893;DHT22;1456;51.840;12.184;2023-02-28T02:40:19;1.80;97.20
2893;DHT22;1456;51.840;12.184;2023-02-28T02:43:16;1.80;97.20
2893;DHT22;1456;51.840;12.184;2023-02-28T02:45:50;1.80;97.10
2893;DHT22;1456;51.840;12.184;2023-02-28T02:48:19;1.80;97.20
2893;DHT22;1456;51.840;12.184;2023-02-28T02:50:53;1.70;97.30
2893;DHT22;1456;51.840;12.184;2023-02-28T02:53:27;1.70;97.50
2893;DHT22;1456;51.840;12.184;2023-02-28T02:55:55;1.70;97.60
2893;DHT22;1456;51.840;12.184;2023-02-28T02:58:28;1.70;97.50
2893;DHT22;1456;51.840;12.184;2023-02-28T03:00:57;1.70;97.50
2893;DHT22;1456;51.840;12.184;2023-02-28T03:03:24;1.70;97.50
2893;DHT22;1456;51.840;12.184;2023-02-28T03:06:00;1.60;97.60
2893;DHT22;1456;51.840;12.184;2023-02-28T03:08:29;1.60;97.80
2893;DHT22;1456;51.840;12.184;2023-02-28T03:11:01;1.60;98.00
2893;DHT22;1456;51.840;12.184;2023-02-28T03:18:44;1.60;98.40
2893;DHT22;1456;51.840;12.184;2023-02-28T03:24:06;1.50;98.50
2893;DHT22;1456;51.840;12.184;2023-02-28T03:26:36;1.50;98.50
2893;DHT22;1456;51.840;12.184;2023-02-28T03:29:22;1.40;98.60
2893;DHT22;1456;51.840;12.184;2023-02-28T03:32:12;1.40;98.90
2893;DHT22;1456;51.840;12.184;2023-02-28T03:34:46;1.40;98.90
2893;DHT22;1456;51.840;12.184;2023-02-28T03:37:20;1.40;99.00
2893;DHT22;1456;51.840;12.184;2023-02-28T03:40:02;1.40;98.90
2893;DHT22;1456;51.840;12.184;2023-02-28T03:42:34;1.30;98.80
2893;DHT22;1456;51.840;12.184;2023-02-28T03:45:05;1.20;98.80
2893;DHT22;1456;51.840;12.184;2023-02-28T03:47:38;1.10;99.00
2893;DHT22;1456;51.840;12.184;2023-02-28T03:50:16;1.00;99.40
2893;DHT22;1456;51.840;12.184;2023-02-28T04:01:40;0.70;99.70
2893;DHT22;1456;51.840;12.184;2023-02-28T04:04:08;0.60;99.90
2893;DHT22;1456;51.840;12.184;2023-02-28T04:06:35;0.60;99.90
2893;DHT22;1456;51.840;12.184;2023-02-28T04:09:03;0.60;99.90
2893;DHT22;1456;51.840;12.184;2023-02-28T04:11:42;0.50;99.90
2893;DHT22;1456;51.840;12.184;2023-02-28T04:14:11;0.40;99.90
2893;DHT22;1456;51.840;12.184;2023-02-28T04:16:44;0.30;99.90
2893;DHT22;1456;51.840;12.184;2023-02-28T04:19:11;0.30;99.90
2893;DHT22;1456;51.840;12.184;2023-02-28T04:21:44;0.20;99.90
2893;DHT22;1456;51.840;12.184;2023-02-28T04:24:12;0.20;99.90
2893;DHT22;1456;51.840;12.184;2023-02-28T04:26:41;-0.30;99.90
2893;DHT22;1456;51.840;12.184;2023-02-28T04:29:09;0.10;99.90
2893;DHT22;1456;51.840;12.184;2023-02-28T04:31:35;-0.20;99.90
2893;DHT22;1456;51.840;12.184;2023-02-28T04:34:01;-0.30;99.90
2893;DHT22;1456;51.840;12.184;2023-02-28T04:36:27;-0.50;99.90
2893;DHT22;1456;51.840;12.184;2023-02-28T04:38:53;-0.60;99.90
2893;DHT22;1456;51.840;12.184;2023-02-28T04:41:19;-0.70;99.90
2893;DHT22;1456;51.840;12.184;2023-02-28T04:43:48;-0.80;99.90
2893;DHT22;1456;51.840;12.184;2023-02-28T04:46:16;-0.90;99.90
2893;DHT22;1456;51.840;12.184;2023-02-28T04:48:43;-1.00;99.90
2893;DHT22;1456;51.840;12.184;2023-02-28T04:51:12;-1.10;99.90
2893;DHT22;1456;51.840;12.184;2023-02-28T04:53:40;-1.20;99.90
2893;DHT22;1456;51.840;12.184;2023-02-28T04:56:07;-1.30;99.90
2893;DHT22;1456;51.840;12.184;2023-02-28T04:58:34;-1.30;99.90
2893;DHT22;1456;51.840;12.184;2023-02-28T05:01:15;-1.40;99.90
2893;DHT22;1456;51.840;12.184;2023-02-28T05:03:42;-1.40;99.90
2893;DHT22;1456;51.840;12.184;2023-02-28T05:06:09;-1.30;99.90
2893;DHT22;1456;51.840;12.184;2023-02-28T05:08:35;-1.50;99.90
2893;DHT22;1456;51.840;12.184;2023-02-28T05:11:01;-1.40;99.90
2893;DHT22;1456;51.840;12.184;2023-02-28T05:13:29;-1.60;99.90
2893;DHT22;1456;51.840;12.184;2023-02-28T05:15:56;-1.60;99.90
2893;DHT22;1456;51.840;12.184;2023-02-28T05:18:22;-1.50;99.90
2893;DHT22;1456;51.840;12.184;2023-02-28T05:20:48;-1.50;99.90
2893;DHT22;1456;51.840;12.184;2023-02-28T05:23:19;-1.70;99.90
2893;DHT22;1456;51.840;12.184;2023-02-28T05:25:47;-1.80;99.90
2893;DHT22;1456;51.840;12.184;2023-02-28T05:28:14;-1.80;99.90
2893;DHT22;1456;51.840;12.184;2023-02-28T05:30:42;-1.90;99.90
2893;DHT22;1456;51.840;12.184;2023-02-28T05:33:11;-2.00;99.90
2893;DHT22;1456;51.840;12.184;2023-02-28T05:35:40;-2.00;99.90
2893;DHT22;1456;51.840;12.184;2023-02-28T05:38:06;-2.10;99.90
2893;DHT22;1456;51.840;12.184;2023-02-28T05:40:33;-2.20;99.90
2893;DHT22;1456;51.840;12.184;2023-02-28T05:43:00;-2.20;99.90
2893;DHT22;1456;51.840;12.184;2023-02-28T05:45:27;-2.10;99.90
2893;DHT22;1456;51.840;12.184;2023-02-28T05:47:54;-2.30;99.90
2893;DHT22;1456;51.840;12.184;2023-02-28T05:50:20;-2.30;99.90
2893;DHT22;1456;51.840;12.184;2023-02-28T05:52:50;-2.30;99.90
2893;DHT22;1456;51.840;12.184;2023-02-28T05:55:16;-2.40;99.90
2893;DHT22;1456;51.840;12.184;2023-02-28T05:57:42;-2.50;99.90
2893;DHT22;1456;51.840;12.184;2023-02-28T06:00:10;-2.50;99.90
2893;DHT22;1456;51.840;12.184;2023-02-28T06:02:35;-2.60;99.90
2893;DHT22;1456;51.840;12.184;2023-02-28T06:05:02;-2.50;99.90
2893;DHT22;1456;51.840;12.184;2023-02-28T06:07:28;-2.60;99.90
2893;DHT22;1456;51.840;12.184;2023-02-28T06:09:53;-2.60;99.90
2893;DHT22;1456;51.840;12.184;2023-02-28T06:12:20;-2.60;99.90
2893;DHT22;1456;51.840;12.184;2023-02-28T06:14:46;-2.60;99.90
2893;DHT22;1456;51.840;12.184;2023-02-28T06:17:18;-2.60;99.90
2893;DHT22;1456;51.840;12.184;2023-02-28T06:19:43;-2.60;99.90
2893;DHT22;1456;51.840;12.184;2023-02-28T06:22:09;-2.60;99.90
2893;DHT22;1456;51.840;12.184;2023-02-28T06:24:36;-2.50;99.90
2893;DHT22;1456;51.840;12.184;2023-02-28T06:27:03;-2.50;99.90
2893;DHT22;1456;51.840;12.184;2023-02-28T06:29:31;-2.50;99.90
2893;DHT22;1456;51.840;12.184;2023-02-28T06:31:56;-2.30;99.90
2893;DHT22;1456;51.840;12.184;2023-02-28T06:34:22;-2.20;99.90
2893;DHT22;1456;51.840;12.184;2023-02-28T06:36:50;-2.10;99.90
2893;DHT22;1456;51.840;12.184;2023-02-28T06:39:16;-2.20;99.90
2893;DHT22;1456;51.840;12.184;2023-02-28T06:41:44;-2.20;99.90
2893;DHT22;1456;51.840;12.184;2023-02-28T06:44:21;-2.00;99.90
2893;DHT22;1456;51.840;12.184;2023-02-28T06:46:47;-1.90;99.90
2893;DHT22;1456;51.840;12.184;2023-02-28T06:49:14;-1.80;99.90
2893;DHT22;1456;51.840;12.184;2023-02-28T06:51:42;-1.80;99.90
2893;DHT22;1456;51.840;12.184;2023-02-28T06:54:11;-1.50;99.90
2893;DHT22;1456;51.840;12.184;2023-02-28T06:56:37;-1.50;99.90
2893;DHT22;1456;51.840;12.184;2023-02-28T06:59:03;-1.50;99.90
2893;DHT22;1456;51.840;12.184;2023-02-28T07:01:29;-1.20;99.90
2893;DHT22;1456;51.840;12.184;2023-02-28T07:03:57;-1.20;99.90
2893;DHT22;1456;51.840;12.184;2023-02-28T07:06:23;-1.00;99.90
2893;DHT22;1456;51.840;12.184;2023-02-28T07:08:50;-1.10;99.90
2893;DHT22;1456;51.840;12.184;2023-02-28T07:11:17;-0.90;99.90
2893;DHT22;1456;51.840;12.184;2023-02-28T07:13:43;-0.80;99.90
2893;DHT22;1456;51.840;12.184;2023-02-28T07:16:10;-0.70;99.90
2893;DHT22;1456;51.840;12.184;2023-02-28T07:18:37;-0.50;99.90
2893;DHT22;1456;51.840;12.184;2023-02-28T07:21:07;-0.40;99.90
2893;DHT22;1456;51.840;12.184;2023-02-28T07:23:34;-0.20;99.90
2893;DHT22;1456;51.840;12.184;2023-02-28T07:26:01;0.00;99.90
2893;DHT22;1456;51.840;12.184;2023-02-28T07:28:27;0.20;99.90
2893;DHT22;1456;51.840;12.184;2023-02-28T07:30:53;0.40;99.90
2893;DHT22;1456;51.840;12.184;2023-02-28T07:33:18;0.50;99.90
2893;DHT22;1456;51.840;12.184;2023-02-28T07:35:44;0.60;99.90
2893;DHT22;1456;51.840;12.184;2023-02-28T07:38:10;0.80;99.90
2893;DHT22;1456;51.840;12.184;2023-02-28T07:40:37;0.90;99.90
2893;DHT22;1456;51.840;12.184;2023-02-28T07:43:03;1.10;99.90
2893;DHT22;1456;51.840;12.184;2023-02-28T07:45:30;1.20;99.90
2893;DHT22;1456;51.840;12.184;2023-02-28T07:48:00;1.20;99.70
2893;DHT22;1456;51.840;12.184;2023-02-28T07:50:26;1.30;99.40
2893;DHT22;1456;51.840;12.184;2023-02-28T07:52:57;1.50;99.00
2893;DHT22;1456;51.840;12.184;2023-02-28T07:55:23;1.60;98.30
2893;DHT22;1456;51.840;12.184;2023-02-28T07:57:48;1.60;97.90
2893;DHT22;1456;51.840;12.184;2023-02-28T08:00:14;1.80;97.80
2893;DHT22;1456;51.840;12.184;2023-02-28T08:02:40;1.90;96.90
2893;DHT22;1456;51.840;12.184;2023-02-28T08:05:07;2.00;96.90
2893;DHT22;1456;51.840;12.184;2023-02-28T08:07:32;2.10;96.70
2893;DHT22;1456;51.840;12.184;2023-02-28T08:09:59;2.30;96.50
2893;DHT22;1456;51.840;12.184;2023-02-28T08:12:25;2.40;96.00
2893;DHT22;1456;51.840;12.184;2023-02-28T08:14:52;2.50;95.70
2893;DHT22;1456;51.840;12.184;2023-02-28T08:17:18;2.60;94.80
2893;DHT22;1456;51.840;12.184;2023-02-28T08:19:46;2.80;95.40
2893;DHT22;1456;51.840;12.184;2023-02-28T08:22:12;2.90;94.10
2893;DHT22;1456;51.840;12.184;2023-02-28T08:24:41;3.00;93.50
2893;DHT22;1456;51.840;12.184;2023-02-28T08:27:08;3.10;93.60
2893;DHT22;1456;51.840;12.184;2023-02-28T08:29:37;3.20;93.50
2893;DHT22;1456;51.840;12.184;2023-02-28T08:32:04;3.30;93.40
2893;DHT22;1456;51.840;12.184;2023-02-28T08:34:30;3.40;93.60
2893;DHT22;1456;51.840;12.184;2023-02-28T08:36:55;3.60;94.00
2893;DHT22;1456;51.840;12.184;2023-02-28T08:39:21;3.70;92.50
2893;DHT22;1456;51.840;12.184;2023-02-28T08:41:48;3.80;91.30
2893;DHT22;1456;51.840;12.184;2023-02-28T08:44:14;3.80;91.60
2893;DHT22;1456;51.840;12.184;2023-02-28T08:46:39;3.90;91.00
2893;DHT22;1456;51.840;12.184;2023-02-28T08:49:05;4.00;90.30
2893;DHT22;1456;51.840;12.184;2023-02-28T08:51:32;4.10;90.20
2893;DHT22;1456;51.840;12.184;2023-02-28T08:53:59;4.10;90.40
2893;DHT22;1456;51.840;12.184;2023-02-28T08:56:27;4.20;90.30
2893;DHT22;1456;51.840;12.184;2023-02-28T08:58:56;4.20;89.40
2893;DHT22;1456;51.840;12.184;2023-02-28T09:01:26;4.20;89.10
2893;DHT22;1456;51.840;12.184;2023-02-28T09:03:53;4.30;87.70
2893;DHT22;1456;51.840;12.184;2023-02-28T09:06:21;4.40;88.20
2893;DHT22;1456;51.840;12.184;2023-02-28T09:08:47;4.50;88.00
2893;DHT22;1456;51.840;12.184;2023-02-28T09:11:14;4.60;87.00
2893;DHT22;1456;51.840;12.184;2023-02-28T09:13:40;4.70;88.50
2893;DHT22;1456;51.840;12.184;2023-02-28T09:16:08;4.80;90.60
2893;DHT22;1456;51.840;12.184;2023-02-28T09:18:36;4.90;88.50
2893;DHT22;1456;51.840;12.184;2023-02-28T09:21:12;5.00;88.60
2893;DHT22;1456;51.840;12.184;2023-02-28T09:23:43;5.10;87.90
2893;DHT22;1456;51.840;12.184;2023-02-28T09:26:14;5.20;86.80
2893;DHT22;1456;51.840;12.184;2023-02-28T09:28:41;5.20;88.10
2893;DHT22;1456;51.840;12.184;2023-02-28T09:31:16;5.20;86.60
2893;DHT22;1456;51.840;12.184;2023-02-28T09:33:44;5.30;85.20
2893;DHT22;1456;51.840;12.184;2023-02-28T09:36:10;5.40;87.90
2893;DHT22;1456;51.840;12.184;2023-02-28T09:38:36;5.30;83.10
2893;DHT22;1456;51.840;12.184;2023-02-28T09:41:08;5.40;85.10
2893;DHT22;1456;51.840;12.184;2023-02-28T09:43:40;5.50;83.30
2893;DHT22;1456;51.840;12.184;2023-02-28T09:48:44;5.50;80.90
2893;DHT22;1456;51.840;12.184;2023-02-28T09:54:17;5.50;80.30
2893;DHT22;1456;51.840;12.184;2023-02-28T09:56:48;5.60;81.20
2893;DHT22;1456;51.840;12.184;2023-02-28T10:04:51;5.80;80.50
2893;DHT22;1456;51.840;12.184;2023-02-28T10:07:48;5.80;77.50
2893;DHT22;1456;51.840;12.184;2023-02-28T10:10:44;5.80;78.80
2893;DHT22;1456;51.840;12.184;2023-02-28T10:16:06;6.00;78.80
2893;DHT22;1456;51.840;12.184;2023-02-28T10:18:51;6.20;76.00
2893;DHT22;1456;51.840;12.184;2023-02-28T10:21:23;6.20;76.50
2893;DHT22;1456;51.840;12.184;2023-02-28T10:23:57;6.30;74.60
2893;DHT22;1456;51.840;12.184;2023-02-28T10:26:26;6.40;74.20
2893;DHT22;1456;51.840;12.184;2023-02-28T10:28:54;6.50;75.60
2893;DHT22;1456;51.840;12.184;2023-02-28T10:31:20;6.60;73.80
2893;DHT22;1456;51.840;12.184;2023-02-28T10:33:47;6.80;74.90
2893;DHT22;1456;51.840;12.184;2023-02-28T10:36:19;7.10;71.90
2893;DHT22;1456;51.840;12.184;2023-02-28T10:38:46;7.20;72.60
2893;DHT22;1456;51.840;12.184;2023-02-28T10:41:15;7.50;69.80
2893;DHT22;1456;51.840;12.184;2023-02-28T10:43:44;7.70;72.00
2893;DHT22;1456;51.840;12.184;2023-02-28T10:51:10;8.60;70.10
2893;DHT22;1456;51.840;12.184;2023-02-28T10:56:20;8.90;67.30
2893;DHT22;1456;51.840;12.184;2023-02-28T11:01:39;9.10;68.10
2893;DHT22;1456;51.840;12.184;2023-02-28T11:04:34;9.80;68.60
2893;DHT22;1456;51.840;12.184;2023-02-28T11:07:22;10.60;67.60
2893;DHT22;1456;51.840;12.184;2023-02-28T11:09:51;11.00;62.30
2893;DHT22;1456;51.840;12.184;2023-02-28T11:12:30;11.20;62.60
2893;DHT22;1456;51.840;12.184;2023-02-28T11:15:05;11.10;61.40
2893;DHT22;1456;51.840;12.184;2023-02-28T11:17:32;11.20;59.60
2893;DHT22;1456;51.840;12.184;2023-02-28T11:20:02;11.20;59.00
2893;DHT22;1456;51.840;12.184;2023-02-28T11:22:35;11.70;62.40
2893;DHT22;1456;51.840;12.184;2023-02-28T11:25:09;12.00;58.50
2893;DHT22;1456;51.840;12.184;2023-02-28T11:27:49;12.00;56.10
2893;DHT22;1456;51.840;12.184;2023-02-28T11:30:36;12.50;57.50
2893;DHT22;1456;51.840;12.184;2023-02-28T11:33:44;12.70;55.70
2893;DHT22;1456;51.840;12.184;2023-02-28T11:36:31;12.90;55.40
2893;DHT22;1456;51.840;12.184;2023-02-28T11:39:04;13.30;56.30
2893;DHT22;1456;51.840;12.184;2023-02-28T11:49:34;15.40;53.80
2893;DHT22;1456;51.840;12.184;2023-02-28T11:52:29;15.60;51.70
2893;DHT22;1456;51.840;12.184;2023-02-28T11:58:04;15.80;51.20
2893;DHT22;1456;51.840;12.184;2023-02-28T12:05:57;15.70;50.20
2893;DHT22;1456;51.840;12.184;2023-02-28T12:17:30;16.00;47.90
2893;DHT22;1456;51.840;12.184;2023-02-28T12:23:11;16.40;47.90
2893;DHT22;1456;51.840;12.184;2023-02-28T12:26:04;16.40;47.50
2893;DHT22;1456;51.840;12.184;2023-02-28T12:28:38;17.00;46.40
2893;DHT22;1456;51.840;12.184;2023-02-28T12:31:24;17.50;46.70
2893;DHT22;1456;51.840;12.184;2023-02-28T12:34:00;17.90;46.50
2893;DHT22;1456;51.840;12.184;2023-02-28T12:36:29;18.40;43.90
2893;DHT22;1456;51.840;12.184;2023-02-28T12:39:10;18.80;44.90
2893;DHT22;1456;51.840;12.184;2023-02-28T12:42:05;19.00;41.70
2893;DHT22;1456;51.840;12.184;2023-02-28T12:44:40;19.20;43.20
2893;DHT22;1456;51.840;12.184;2023-02-28T12:47:15;19.40;44.70
2893;DHT22;1456;51.840;12.184;2023-02-28T12:52:39;19.60;42.10
2893;DHT22;1456;51.840;12.184;2023-02-28T12:55:19;19.90;41.60
2893;DHT22;1456;51.840;12.184;2023-02-28T12:57:52;20.20;42.20
2893;DHT22;1456;51.840;12.184;2023-02-28T13:00:23;20.10;40.50
2893;DHT22;1456;51.840;12.184;2023-02-28T13:06:00;20.80;41.20
2893;DHT22;1456;51.840;12.184;2023-02-28T13:11:32;21.40;39.70
2893;DHT22;1456;51.840;12.184;2023-02-28T13:14:00;21.20;38.50
2893;DHT22;1456;51.840;12.184;2023-02-28T13:16:27;21.10;38.50
2893;DHT22;1456;51.840;12.184;2023-02-28T13:19:08;21.20;38.20
2893;DHT22;1456;51.840;12.184;2023-02-28T13:21:43;21.20;37.50
2893;DHT22;1456;51.840;12.184;2023-02-28T13:24:10;21.80;39.00
2893;DHT22;1456;51.840;12.184;2023-02-28T13:34:40;22.40;36.50
2893;DHT22;1456;51.840;12.184;2023-02-28T13:39:48;22.50;34.90
2893;DHT22;1456;51.840;12.184;2023-02-28T13:42:33;22.40;35.40
2893;DHT22;1456;51.840;12.184;2023-02-28T13:47:36;23.40;35.00
2893;DHT22;1456;51.840;12.184;2023-02-28T13:58:39;23.70;34.60
2893;DHT22;1456;51.840;12.184;2023-02-28T14:06:33;24.60;33.50
2893;DHT22;1456;51.840;12.184;2023-02-28T14:11:34;25.30;33.50
2893;DHT22;1456;51.840;12.184;2023-02-28T14:14:02;25.30;31.10
2893;DHT22;1456;51.840;12.184;2023-02-28T14:16:40;25.20;32.60
2893;DHT22;1456;51.840;12.184;2023-02-28T14:19:27;24.70;32.00
2893;DHT22;1456;51.840;12.184;2023-02-28T14:32:40;25.00;31.00
2893;DHT22;1456;51.840;12.184;2023-02-28T14:37:53;24.70;31.50
2893;DHT22;1456;51.840;12.184;2023-02-28T14:40:21;24.80;31.90
2893;DHT22;1456;51.840;12.184;2023-02-28T14:43:02;25.00;30.80
2893;DHT22;1456;51.840;12.184;2023-02-28T14:45:32;25.30;31.40
2893;DHT22;1456;51.840;12.184;2023-02-28T14:47:59;25.50;30.90
2893;DHT22;1456;51.840;12.184;2023-02-28T14:50:34;25.80;30.00
2893;DHT22;1456;51.840;12.184;2023-02-28T14:53:03;25.70;30.50
2893;DHT22;1456;51.840;12.184;2023-02-28T14:55:35;25.60;30.50
2893;DHT22;1456;51.840;12.184;2023-02-28T14:58:03;25.60;31.10
2893;DHT22;1456;51.840;12.184;2023-02-28T15:00:34;25.40;29.30
2893;DHT22;1456;51.840;12.184;2023-02-28T15:03:13;25.50;30.60
2893;DHT22;1456;51.840;12.184;2023-02-28T15:05:54;25.40;29.50
2893;DHT22;1456;51.840;12.184;2023-02-28T15:08:20;25.60;29.50
2893;DHT22;1456;51.840;12.184;2023-02-28T15:11:08;24.80;29.80
2893;DHT22;1456;51.840;12.184;2023-02-28T15:13:44;24.60;29.50
2893;DHT22;1456;51.840;12.184;2023-02-28T15:16:25;24.40;29.70
2893;DHT22;1456;51.840;12.184;2023-02-28T15:19:05;23.20;29.40
2893;DHT22;1456;51.840;12.184;2023-02-28T15:21:39;22.30;29.50
2893;DHT22;1456;51.840;12.184;2023-02-28T15:26:41;20.60;29.80
2893;DHT22;1456;51.840;12.184;2023-02-28T15:29:20;18.50;30.50
2893;DHT22;1456;51.840;12.184;2023-02-28T15:34:24;14.50;33.30
2893;DHT22;1456;51.840;12.184;2023-02-28T15:36:52;13.10;33.70
2893;DHT22;1456;51.840;12.184;2023-02-28T15:39:23;12.00;35.30
2893;DHT22;1456;51.840;12.184;2023-02-28T15:41:50;11.10;36.40
2893;DHT22;1456;51.840;12.184;2023-02-28T15:44:30;10.30;35.90
2893;DHT22;1456;51.840;12.184;2023-02-28T15:49:47;9.20;39.50
2893;DHT22;1456;51.840;12.184;2023-02-28T15:52:17;8.70;40.60
2893;DHT22;1456;51.840;12.184;2023-02-28T15:54:46;8.30;42.30
2893;DHT22;1456;51.840;12.184;2023-02-28T15:57:21;8.00;41.80
2893;DHT22;1456;51.840;12.184;2023-02-28T15:59:56;7.70;41.50
2893;DHT22;1456;51.840;12.184;2023-02-28T16:02:37;7.40;42.10
2893;DHT22;1456;51.840;12.184;2023-02-28T16:07:32;7.00;44.70
2893;DHT22;1456;51.840;12.184;2023-02-28T16:09:59;6.80;45.50
2893;DHT22;1456;51.840;12.184;2023-02-28T16:12:27;6.60;45.10
2893;DHT22;1456;51.840;12.184;2023-02-28T16:14:57;6.50;45.30
2893;DHT22;1456;51.840;12.184;2023-02-28T16:17:25;6.30;46.70
2893;DHT22;1456;51.840;12.184;2023-02-28T16:19:51;6.10;46.50
2893;DHT22;1456;51.840;12.184;2023-02-28T16:22:18;6.00;46.00
2893;DHT22;1456;51.840;12.184;2023-02-28T16:24:45;5.90;48.10
2893;DHT22;1456;51.840;12.184;2023-02-28T16:27:33;5.80;49.80
2893;DHT22;1456;51.840;12.184;2023-02-28T16:30:01;5.60;50.90
2893;DHT22;1456;51.840;12.184;2023-02-28T16:32:27;5.50;51.50
2893;DHT22;1456;51.840;12.184;2023-02-28T16:34:53;5.30;51.40
2893;DHT22;1456;51.840;12.184;2023-02-28T16:37:18;5.20;52.30
2893;DHT22;1456;51.840;12.184;2023-02-28T16:39:45;5.10;52.70
2893;DHT22;1456;51.840;12.184;2023-02-28T16:42:25;4.90;52.30
2893;DHT22;1456;51.840;12.184;2023-02-28T16:44:53;4.90;54.00
2893;DHT22;1456;51.840;12.184;2023-02-28T16:47:19;4.70;55.00
2893;DHT22;1456;51.840;12.184;2023-02-28T16:49:45;4.50;56.90
2893;DHT22;1456;51.840;12.184;2023-02-28T16:52:13;4.40;57.20
2893;DHT22;1456;51.840;12.184;2023-02-28T16:54:40;4.20;58.30
2893;DHT22;1456;51.840;12.184;2023-02-28T16:57:17;4.10;59.60
2893;DHT22;1456;51.840;12.184;2023-02-28T16:59:47;3.90;61.10
2893;DHT22;1456;51.840;12.184;2023-02-28T17:02:15;3.80;63.30
2893;DHT22;1456;51.840;12.184;2023-02-28T17:04:43;3.70;66.10
2893;DHT22;1456;51.840;12.184;2023-02-28T17:07:12;3.50;69.10
2893;DHT22;1456;51.840;12.184;2023-02-28T17:09:38;3.40;71.30
2893;DHT22;1456;51.840;12.184;2023-02-28T17:12:04;3.20;74.60
2893;DHT22;1456;51.840;12.184;2023-02-28T17:14:30;3.10;76.30
2893;DHT22;1456;51.840;12.184;2023-02-28T17:16:59;3.00;76.90
2893;DHT22;1456;51.840;12.184;2023-02-28T17:19:26;2.90;78.00
2893;DHT22;1456;51.840;12.184;2023-02-28T17:21:53;2.70;80.70
2893;DHT22;1456;51.840;12.184;2023-02-28T17:24:19;2.60;82.20
2893;DHT22;1456;51.840;12.184;2023-02-28T17:26:47;2.50;83.90
2893;DHT22;1456;51.840;12.184;2023-02-28T17:29:19;2.30;86.40
2893;DHT22;1456;51.840;12.184;2023-02-28T17:31:46;2.20;87.10
2893;DHT22;1456;51.840;12.184;2023-02-28T17:34:12;2.10;89.00
2893;DHT22;1456;51.840;12.184;2023-02-28T17:36:44;1.90;89.40
2893;DHT22;1456;51.840;12.184;2023-02-28T17:39:11;1.90;90.50
2893;DHT22;1456;51.840;12.184;2023-02-28T17:41:45;1.70;91.10
2893;DHT22;1456;51.840;12.184;2023-02-28T17:44:10;1.60;92.20
2893;DHT22;1456;51.840;12.184;2023-02-28T17:46:44;1.70;92.30
2893;DHT22;1456;51.840;12.184;2023-02-28T17:49:10;1.50;92.80
2893;DHT22;1456;51.840;12.184;2023-02-28T17:51:36;1.40;93.00
2893;DHT22;1456;51.840;12.184;2023-02-28T17:54:02;1.30;93.40
2893;DHT22;1456;51.840;12.184;2023-02-28T17:56:28;1.20;93.90
2893;DHT22;1456;51.840;12.184;2023-02-28T17:58:55;1.20;94.60
2893;DHT22;1456;51.840;12.184;2023-02-28T18:01:22;1.10;94.50
2893;DHT22;1456;51.840;12.184;2023-02-28T18:03:49;1.10;95.00
2893;DHT22;1456;51.840;12.184;2023-02-28T18:06:39;1.00;95.00
2893;DHT22;1456;51.840;12.184;2023-02-28T18:09:18;0.90;95.60
2893;DHT22;1456;51.840;12.184;2023-02-28T18:11:49;0.80;95.30
2893;DHT22;1456;51.840;12.184;2023-02-28T18:14:16;0.80;95.80
2893;DHT22;1456;51.840;12.184;2023-02-28T18:16:43;0.60;96.20
2893;DHT22;1456;51.840;12.184;2023-02-28T18:19:09;0.60;96.60
2893;DHT22;1456;51.840;12.184;2023-02-28T18:21:44;0.70;96.50
2893;DHT22;1456;51.840;12.184;2023-02-28T18:24:11;0.60;96.90
2893;DHT22;1456;51.840;12.184;2023-02-28T18:26:40;0.40;96.80
2893;DHT22;1456;51.840;12.184;2023-02-28T18:29:07;0.40;97.40
2893;DHT22;1456;51.840;12.184;2023-02-28T18:31:33;0.30;97.60
2893;DHT22;1456;51.840;12.184;2023-02-28T18:33:59;0.20;97.80
2893;DHT22;1456;51.840;12.184;2023-02-28T18:36:26;0.20;97.80
2893;DHT22;1456;51.840;12.184;2023-02-28T18:38:52;0.30;97.90
2893;DHT22;1456;51.840;12.184;2023-02-28T18:41:19;0.00;97.60
2893;DHT22;1456;51.840;12.184;2023-02-28T18:43:46;0.00;97.40
2893;DHT22;1456;51.840;12.184;2023-02-28T18:46:15;0.10;97.90